createdAt,value
2018-10-02T00:01:07.077Z,101591.03
2018-10-02T00:03:35.231Z,101598.31
2018-10-02T00:06:03.247Z,101594.86
2018-10-02T00:08:31.248Z,101595.63
2018-10-02T00:11:04.663Z,101598.95
2018-10-02T00:13:37.976Z,101586.70
2018-10-02T00:16:06.638Z,101577.01
2018-10-02T00:18:34.803Z,101576.09
2018-10-02T00:21:02.806Z,101569.09
2018-10-02T00:23:30.833Z,101562.44
2018-10-02T00:25:58.846Z,101559.84
2018-10-02T00:28:26.835Z,101560.62
2018-10-02T00:30:54.886Z,101570.54
2018-10-02T00:33:22.958Z,101569.90
2018-10-02T00:35:50.977Z,101561.66
2018-10-02T00:38:18.979Z,101556.19
2018-10-02T00:40:46.994Z,101557.90
2018-10-02T00:43:14.993Z,101554.07
2018-10-02T00:45:43.006Z,101557.97
2018-10-02T00:48:11.016Z,101560.16
2018-10-02T00:50:39.017Z,101553.70
2018-10-02T00:53:07.028Z,101553.28
2018-10-02T00:55:35.059Z,101552.77
2018-10-02T00:58:03.223Z,101547.52
2018-10-02T01:00:31.223Z,101537.26
2018-10-02T01:02:59.231Z,101547.36
2018-10-02T01:05:27.240Z,101543.91
2018-10-02T01:07:55.255Z,101547.30
2018-10-02T01:10:23.286Z,101542.45
2018-10-02T01:12:51.303Z,101535.62
2018-10-02T01:15:19.295Z,101530.55
2018-10-02T01:17:47.315Z,101521.98
2018-10-02T01:20:15.311Z,101523.66
2018-10-02T01:22:43.303Z,101520.61
2018-10-02T01:25:11.302Z,101523.14
2018-10-02T01:27:39.322Z,101526.08
2018-10-02T01:30:07.388Z,101517.38
2018-10-02T01:32:35.627Z,101515.56
2018-10-02T01:35:03.792Z,101522.33
2018-10-02T01:37:31.799Z,101517.41
2018-10-02T01:39:59.814Z,101505.25
2018-10-02T01:42:27.824Z,101505.66
2018-10-02T01:44:55.822Z,101495.27
2018-10-02T01:47:23.818Z,101493.45
2018-10-02T01:49:51.832Z,101489.12
2018-10-02T01:52:19.830Z,101482.11
2018-10-02T01:54:47.826Z,101482.94
2018-10-02T01:57:15.842Z,101481.36
2018-10-02T01:59:43.859Z,101482.00
2018-10-02T02:02:11.858Z,101479.61
2018-10-02T02:04:40.027Z,101472.66
2018-10-02T02:07:08.031Z,101472.56
2018-10-02T02:09:36.042Z,101463.39
2018-10-02T02:12:04.962Z,101455.45
2018-10-02T02:14:32.982Z,101453.20
2018-10-02T02:17:00.986Z,101453.09
2018-10-02T02:19:29.150Z,101447.37
2018-10-02T02:21:57.160Z,101446.45
2018-10-02T02:24:25.155Z,101445.15
2018-10-02T02:26:53.188Z,101443.26
2018-10-02T02:29:21.187Z,101440.92
2018-10-02T02:31:49.175Z,101437.81
2018-10-02T02:34:17.215Z,101434.65
2018-10-02T02:36:45.221Z,101424.52
2018-10-02T02:39:13.211Z,101423.47
2018-10-02T02:41:41.215Z,101419.17
2018-10-02T02:44:09.223Z,101418.58
2018-10-02T02:46:37.210Z,101413.00
2018-10-02T02:49:10.640Z,101409.36
2018-10-02T02:51:38.650Z,101412.78
2018-10-02T02:54:06.687Z,101404.09
2018-10-02T02:56:34.691Z,101395.77
2018-10-02T02:59:03.514Z,101381.53
2018-10-02T03:01:31.535Z,101374.81
2018-10-02T03:03:59.920Z,101370.80
2018-10-02T03:06:27.958Z,101366.38
2018-10-02T03:08:56.287Z,101369.75
2018-10-02T03:11:24.293Z,101369.15
2018-10-02T03:13:52.291Z,101368.09
2018-10-02T03:16:20.607Z,101358.14
2018-10-02T03:18:48.611Z,101351.11
2018-10-02T03:21:16.685Z,101348.77
2018-10-02T03:23:44.703Z,101350.72
2018-10-02T03:26:12.882Z,101350.56
2018-10-02T03:28:40.897Z,101348.29
2018-10-02T03:31:08.972Z,101340.48
2018-10-02T03:33:37.010Z,101339.34
2018-10-02T03:36:05.083Z,101339.59
2018-10-02T03:38:33.168Z,101325.65
2018-10-02T03:41:01.167Z,101325.89
2018-10-02T03:43:29.299Z,101321.02
2018-10-02T03:45:57.310Z,101309.55
2018-10-02T03:48:25.534Z,101299.14
2018-10-02T03:50:53.832Z,101306.42
2018-10-02T03:53:21.891Z,101294.30
2018-10-02T03:55:49.911Z,101282.02
2018-10-02T03:58:17.919Z,101280.40
2018-10-02T04:00:46.132Z,101282.15
2018-10-02T04:03:14.223Z,101276.94
2018-10-02T04:05:42.275Z,101269.46
2018-10-02T04:08:10.283Z,101272.06
2018-10-02T04:10:38.298Z,101262.34
2018-10-02T04:13:06.817Z,101256.69
2018-10-02T04:15:34.759Z,101260.52
2018-10-02T04:18:02.970Z,101261.89
2018-10-02T04:20:31.104Z,101265.19
2018-10-02T04:22:59.127Z,101263.80
2018-10-02T04:25:27.143Z,101263.44
2018-10-02T04:27:55.178Z,101263.27
2018-10-02T04:30:23.158Z,101260.98
2018-10-02T04:32:51.171Z,101253.63
2018-10-02T04:35:19.190Z,101241.55
2018-10-02T04:37:47.211Z,101247.52
2018-10-02T04:40:15.222Z,101243.98
2018-10-02T04:42:43.223Z,101239.27
2018-10-02T04:45:11.235Z,101239.18
2018-10-02T04:47:39.270Z,101239.95
2018-10-02T04:50:07.531Z,101241.56
2018-10-02T04:52:35.578Z,101243.32
2018-10-02T04:55:04.719Z,101254.63
2018-10-02T04:57:32.657Z,101250.89
2018-10-02T05:00:00.731Z,101254.39
2018-10-02T05:02:28.866Z,101260.53
2018-10-02T05:04:56.819Z,101257.16
2018-10-02T05:07:24.838Z,101263.67
2018-10-02T05:09:52.856Z,101255.55
2018-10-02T05:12:20.965Z,101246.73
2018-10-02T05:14:48.980Z,101238.31
2018-10-02T05:17:16.977Z,101230.27
2018-10-02T05:19:44.984Z,101213.73
2018-10-02T05:22:13.057Z,101204.78
2018-10-02T05:24:41.141Z,101204.06
2018-10-02T05:27:09.200Z,101196.03
2018-10-02T05:29:37.164Z,101202.24
2018-10-02T05:32:05.343Z,101198.47
2018-10-02T05:34:33.408Z,101191.97
2018-10-02T05:37:01.483Z,101186.31
2018-10-02T05:39:29.564Z,101179.81
2018-10-02T05:41:57.636Z,101179.13
2018-10-02T05:44:25.992Z,101173.60
2018-10-02T05:46:54.001Z,101169.91
2018-10-02T05:49:22.023Z,101164.80
2018-10-02T05:51:50.225Z,101165.16
2018-10-02T05:54:18.236Z,101167.23
2018-10-02T05:56:46.375Z,101167.19
2018-10-02T05:59:14.597Z,101160.73
2018-10-02T06:01:42.617Z,101151.80
2018-10-02T06:04:10.872Z,101133.91
2018-10-02T06:06:38.973Z,101125.25
2018-10-02T06:09:09.076Z,101139.02
2018-10-02T06:11:37.315Z,101133.29
2018-10-02T06:14:05.789Z,101125.41
2018-10-02T06:16:33.838Z,101119.75
2018-10-02T06:19:02.244Z,101101.91
2018-10-02T06:21:30.289Z,101109.43
2018-10-02T06:23:58.539Z,101111.55
2018-10-02T06:26:26.592Z,101110.41
2018-10-02T06:28:54.731Z,101109.88
2018-10-02T06:31:22.755Z,101092.21
2018-10-02T06:33:50.792Z,101090.51
2018-10-02T06:36:18.795Z,101098.39
2018-10-02T06:38:47.709Z,101094.73
2018-10-02T06:41:15.714Z,101104.00
2018-10-02T06:43:43.747Z,101104.28
2018-10-02T06:46:11.832Z,101098.55
2018-10-02T06:48:39.842Z,101099.48
2018-10-02T06:51:08.178Z,101099.17
2018-10-02T06:53:36.528Z,101099.27
2018-10-02T06:56:05.045Z,101101.78
2018-10-02T06:58:33.080Z,101111.73
2018-10-02T07:01:01.113Z,101086.94
2018-10-02T07:03:29.124Z,101093.44
2018-10-02T07:05:57.256Z,101099.23
2018-10-02T07:08:25.293Z,101076.67
2018-10-02T07:10:53.311Z,101077.30
2018-10-02T07:13:21.332Z,101077.84
2018-10-02T07:15:49.536Z,101090.77
2018-10-02T07:18:17.551Z,101075.52
2018-10-02T07:20:45.678Z,101085.02
2018-10-02T07:23:13.601Z,101087.40
2018-10-02T07:25:41.619Z,101080.72
2018-10-02T07:28:09.653Z,101077.67
2018-10-02T07:30:37.722Z,101077.36
2018-10-02T07:33:05.788Z,101072.55
2018-10-02T07:35:33.695Z,101060.00
2018-10-02T07:38:01.732Z,101053.41
2018-10-02T07:40:29.736Z,101042.72
2018-10-02T07:42:58.585Z,101049.22
2018-10-02T07:45:26.596Z,101041.42
2018-10-02T07:47:54.788Z,101042.41
2018-10-02T07:50:22.830Z,101048.69
2018-10-02T07:52:50.791Z,101028.91
2018-10-02T07:55:18.811Z,101032.91
2018-10-02T07:57:46.832Z,101032.28
2018-10-02T08:00:15.116Z,101036.95
2018-10-02T08:02:43.142Z,101045.73
2018-10-02T08:05:11.286Z,101045.59
2018-10-02T08:07:39.253Z,101035.55
2018-10-02T08:10:07.274Z,101031.96
2018-10-02T08:12:35.291Z,101019.34
2018-10-02T08:15:03.559Z,101012.21
2018-10-02T08:17:31.603Z,101009.83
2018-10-02T08:19:59.697Z,101009.38
2018-10-02T08:22:27.592Z,101008.96
2018-10-02T08:24:55.992Z,101002.67
2018-10-02T08:27:24.081Z,100998.05
2018-10-02T08:29:52.108Z,100995.66
2018-10-02T08:32:20.068Z,100990.52
2018-10-02T08:34:48.076Z,100986.61
2018-10-02T08:37:16.163Z,100985.58
2018-10-02T08:39:44.172Z,100988.03
2018-10-02T08:42:12.180Z,101002.57
2018-10-02T08:44:40.439Z,100988.81
2018-10-02T08:47:08.436Z,100989.12
2018-10-02T08:49:36.467Z,100993.14
2018-10-02T08:52:05.102Z,100982.02
2018-10-02T08:54:32.988Z,100984.64
2018-10-02T08:57:01.003Z,100979.83
2018-10-02T08:59:29.035Z,100985.60
2018-10-02T09:01:57.048Z,100973.17
2018-10-02T09:04:25.067Z,100957.53
2018-10-02T09:06:58.410Z,100970.67
2018-10-02T09:09:26.614Z,100961.66
2018-10-02T09:11:54.680Z,100961.40
2018-10-02T09:14:22.708Z,100959.64
2018-10-02T09:16:50.785Z,100951.72
2018-10-02T09:19:18.888Z,100956.48
2018-10-02T09:21:47.137Z,100958.59
2018-10-02T09:24:15.084Z,100965.61
2018-10-02T09:26:43.116Z,100961.90
2018-10-02T09:29:11.194Z,100978.84
2018-10-02T09:31:44.644Z,100967.87
2018-10-02T09:34:18.191Z,100965.26
2018-10-02T09:36:51.522Z,100958.58
2018-10-02T09:39:24.900Z,100965.26
2018-10-02T09:44:32.664Z,100961.45
2018-10-02T09:47:00.852Z,100945.73
2018-10-02T09:49:28.868Z,100948.70
2018-10-02T09:51:57.013Z,100948.15
2018-10-02T09:54:25.053Z,100957.11
2018-10-02T09:56:53.201Z,100958.13
2018-10-02T09:59:21.179Z,100956.75
2018-10-02T10:02:09.778Z,100958.41
2018-10-02T10:04:37.816Z,100952.34
2018-10-02T10:07:06.005Z,100957.70
2018-10-02T10:09:34.041Z,100952.84
2018-10-02T10:12:02.079Z,100959.65
2018-10-02T10:14:30.120Z,100961.97
2018-10-02T10:16:58.206Z,100960.50
2018-10-02T10:19:26.361Z,100953.03
2018-10-02T10:22:10.342Z,100952.37
2018-10-02T10:24:38.479Z,100958.27
2018-10-02T10:27:06.839Z,100952.66
2018-10-02T10:29:34.926Z,100947.09
2018-10-02T10:32:03.383Z,100946.14
2018-10-02T10:37:10.971Z,100941.86
2018-10-02T10:39:38.988Z,100942.05
2018-10-02T10:42:07.067Z,100945.05
2018-10-02T10:44:35.108Z,100930.50
2018-10-02T10:47:03.503Z,100930.22
2018-10-02T10:49:31.464Z,100929.56
2018-10-02T10:51:59.557Z,100929.75
2018-10-02T10:54:27.596Z,100928.63
2018-10-02T10:56:55.663Z,100922.86
2018-10-02T10:59:23.687Z,100919.13
2018-10-02T11:01:51.819Z,100912.42
2018-10-02T11:04:19.859Z,100921.11
2018-10-02T11:06:48.012Z,100921.18
2018-10-02T11:09:16.081Z,100910.73
2018-10-02T11:11:44.044Z,100913.88
2018-10-02T11:14:12.373Z,100922.08
2018-10-02T11:16:40.556Z,100924.97
2018-10-02T11:19:14.977Z,100920.38
2018-10-02T11:21:43.017Z,100923.00
2018-10-02T11:24:11.240Z,100918.13
2018-10-02T11:26:39.272Z,100920.10
2018-10-02T11:29:07.364Z,100919.33
2018-10-02T11:31:35.467Z,100911.37
2018-10-02T11:34:03.494Z,100905.59
2018-10-02T11:36:31.540Z,100914.73
2018-10-02T11:39:00.155Z,100898.03
2018-10-02T11:41:28.195Z,100897.73
2018-10-02T11:43:56.461Z,100899.40
2018-10-02T11:46:24.429Z,100908.83
2018-10-02T11:48:52.536Z,100907.13
2018-10-02T11:51:20.611Z,100903.83
2018-10-02T11:53:48.627Z,100896.73
2018-10-02T11:56:16.640Z,100892.62
2018-10-02T11:58:44.671Z,100897.39
2018-10-02T12:01:12.770Z,100902.30
2018-10-02T12:03:40.716Z,100897.91
2018-10-02T12:06:09.320Z,100893.72
2018-10-02T12:08:37.360Z,100894.62
2018-10-02T12:11:05.468Z,100893.48
2018-10-02T12:13:33.759Z,100892.16
2018-10-02T12:16:01.915Z,100889.31
2018-10-02T12:18:29.931Z,100880.82
2018-10-02T12:20:57.961Z,100895.15
2018-10-02T12:23:26.135Z,100891.85
2018-10-02T12:25:54.383Z,100891.94
2018-10-02T12:28:22.460Z,100892.17
2018-10-02T12:30:50.524Z,100886.53
2018-10-02T12:33:18.540Z,100896.58
2018-10-02T12:35:46.783Z,100895.84
2018-10-02T12:38:14.857Z,100889.81
2018-10-02T12:40:42.952Z,100893.78
2018-10-02T12:43:11.307Z,100898.98
2018-10-02T12:45:39.380Z,100890.23
2018-10-02T12:48:07.472Z,100897.56
2018-10-02T12:50:35.532Z,100900.02
2018-10-02T12:53:03.599Z,100893.63
2018-10-02T12:55:31.672Z,100888.11
2018-10-02T12:57:59.756Z,100891.63
2018-10-02T13:00:27.803Z,100889.57
2018-10-02T13:02:55.820Z,100879.52
2018-10-02T13:05:23.944Z,100873.48
2018-10-02T13:07:52.067Z,100875.34
2018-10-02T13:10:20.100Z,100884.08
2018-10-02T13:12:48.162Z,100890.23
2018-10-02T13:15:16.240Z,100890.18
2018-10-02T13:17:44.600Z,100888.42
2018-10-02T13:20:12.611Z,100883.23
2018-10-02T13:22:40.643Z,100881.92
2018-10-02T13:25:08.697Z,100881.25
2018-10-02T13:27:36.697Z,100884.84
2018-10-02T13:30:06.078Z,100886.03
2018-10-02T13:32:34.126Z,100882.34
2018-10-02T13:35:02.209Z,100875.65
2018-10-02T13:37:30.248Z,100871.62
2018-10-02T13:39:58.267Z,100883.05
2018-10-02T13:42:26.288Z,100872.08
2018-10-02T13:44:54.317Z,100873.63
2018-10-02T13:47:22.345Z,100866.99
2018-10-02T13:49:51.138Z,100874.73
2018-10-02T13:52:19.312Z,100870.20
2018-10-02T13:54:47.696Z,100859.92
2018-10-02T13:57:16.503Z,100871.37
2018-10-02T13:59:44.533Z,100870.64
2018-10-02T14:02:12.636Z,100869.68
2018-10-02T14:04:41.351Z,100864.53
2018-10-02T14:07:09.586Z,100874.20
2018-10-02T14:09:37.607Z,100879.70
2018-10-02T14:12:05.633Z,100889.72
2018-10-02T14:14:35.467Z,100875.75
2018-10-02T14:17:03.495Z,100895.84
2018-10-02T14:19:32.466Z,100899.41
2018-10-02T14:22:00.772Z,100919.14
2018-10-02T14:24:29.271Z,100915.92
2018-10-02T14:26:57.291Z,100925.97
2018-10-02T14:29:25.424Z,100930.52
2018-10-02T14:31:53.463Z,100927.03
2018-10-02T14:34:22.096Z,100925.85
2018-10-02T14:36:50.100Z,100934.80
2018-10-02T14:39:18.276Z,100933.83
2018-10-02T14:41:46.382Z,100937.30
2018-10-02T14:44:14.472Z,100938.73
2018-10-02T14:46:42.528Z,100940.52
2018-10-02T14:49:10.549Z,100939.41
2018-10-02T14:51:38.676Z,100943.32
2018-10-02T14:54:06.756Z,100939.67
2018-10-02T14:56:34.788Z,100935.13
2018-10-02T14:59:04.168Z,100940.46
2018-10-02T15:01:32.195Z,100945.02
2018-10-02T15:04:00.216Z,100947.81
2018-10-02T15:06:28.255Z,100951.86
2018-10-02T15:08:56.388Z,100944.09
2018-10-02T15:11:24.449Z,100942.20
2018-10-02T15:13:52.484Z,100949.02
2018-10-02T15:16:20.499Z,100961.20
2018-10-02T15:18:48.525Z,100971.59
2018-10-02T15:21:16.544Z,100968.09
2018-10-02T15:23:44.567Z,100964.15
2018-10-02T15:26:12.875Z,100972.18
2018-10-02T15:28:40.964Z,100986.08
2018-10-02T15:31:08.993Z,100993.61
2018-10-02T15:33:37.392Z,100993.77
2018-10-02T15:36:05.424Z,101002.72
2018-10-02T15:38:33.464Z,101016.96
2018-10-02T15:41:01.922Z,101008.21
2018-10-02T15:43:29.948Z,101013.95
2018-10-02T15:45:57.980Z,101014.09
2018-10-02T15:48:26.024Z,101031.66
2018-10-02T15:50:54.089Z,101031.91
2018-10-02T15:53:22.085Z,101029.78
2018-10-02T15:55:50.109Z,101025.12
2018-10-02T15:58:18.135Z,101022.00
2018-10-02T16:00:46.480Z,101027.86
2018-10-02T16:03:14.525Z,101028.94
2018-10-02T16:05:42.541Z,101023.45
2018-10-02T16:08:10.585Z,101027.28
2018-10-02T16:10:38.612Z,101030.15
2018-10-02T16:13:06.824Z,101038.27
2018-10-02T16:15:34.859Z,101034.10
2018-10-02T16:18:02.925Z,101056.45
2018-10-02T16:20:30.918Z,101046.75
2018-10-02T16:22:58.935Z,101047.72
2018-10-02T16:25:26.961Z,101051.88
2018-10-02T16:27:55.000Z,101051.63
2018-10-02T16:30:23.015Z,101045.19
2018-10-02T16:32:51.068Z,101049.38
2018-10-02T16:35:19.093Z,101051.76
2018-10-02T16:37:47.117Z,101051.39
2018-10-02T16:40:15.132Z,101060.96
2018-10-02T16:42:43.303Z,101073.72
2018-10-02T16:45:11.352Z,101068.09
2018-10-02T16:47:39.427Z,101078.13
2018-10-02T16:50:07.460Z,101076.30
2018-10-02T16:52:36.387Z,101083.80
2018-10-02T16:55:05.292Z,101085.05
2018-10-02T16:57:33.319Z,101087.66
2018-10-02T17:00:01.472Z,101089.69
2018-10-02T17:02:29.564Z,101087.66
2018-10-02T17:04:57.581Z,101094.41
2018-10-02T17:07:25.748Z,101108.91
2018-10-02T17:09:53.780Z,101114.87
2018-10-02T17:12:21.796Z,101109.59
2018-10-02T17:14:49.846Z,101117.07
2018-10-02T17:17:17.867Z,101111.21
2018-10-02T17:19:46.537Z,101118.67
2018-10-02T17:22:14.577Z,101115.06
2018-10-02T17:24:42.779Z,101118.97
2018-10-02T17:27:10.928Z,101112.96
2018-10-02T17:29:38.947Z,101123.19
2018-10-02T17:32:08.044Z,101124.00
2018-10-02T17:34:36.082Z,101128.14
2018-10-02T17:37:05.247Z,101133.61
2018-10-02T17:39:33.264Z,101143.11
2018-10-02T17:42:01.288Z,101149.51
2018-10-02T17:44:29.317Z,101143.84
2018-10-02T17:46:57.407Z,101151.09
2018-10-02T17:49:25.450Z,101153.64
2018-10-02T17:51:53.436Z,101158.72
2018-10-02T17:54:21.644Z,101157.98
2018-10-02T17:56:49.660Z,101158.68
2018-10-02T17:59:17.692Z,101168.78
2018-10-02T18:01:45.876Z,101165.53
2018-10-02T18:04:13.897Z,101161.22
2018-10-02T18:06:41.912Z,101157.81
2018-10-02T18:09:09.952Z,101162.21
2018-10-02T18:11:38.288Z,101154.76
2018-10-02T18:14:06.323Z,101153.23
2018-10-02T18:16:34.352Z,101158.31
2018-10-02T18:19:02.476Z,101158.05
2018-10-02T18:21:30.528Z,101161.51
2018-10-02T18:23:58.772Z,101164.92
2018-10-02T18:26:26.859Z,101168.69
2018-10-02T18:28:55.056Z,101168.98
2018-10-02T18:31:23.159Z,101168.98
2018-10-02T18:33:51.472Z,101173.02
2018-10-02T18:36:19.524Z,101159.02
2018-10-02T18:38:47.579Z,101167.33
2018-10-02T18:41:15.612Z,101164.44
2018-10-02T18:43:43.659Z,101171.20
2018-10-02T18:46:11.700Z,101171.39
2018-10-02T18:48:39.748Z,101178.61
2018-10-02T18:51:07.760Z,101172.46
2018-10-02T18:53:35.799Z,101174.34
2018-10-02T18:56:05.063Z,101168.08
2018-10-02T18:58:33.088Z,101175.48
2018-10-02T19:01:01.162Z,101181.28
2018-10-02T19:03:29.228Z,101193.38
2018-10-02T19:05:57.312Z,101193.95
2018-10-02T19:08:30.696Z,101197.20
2018-10-02T19:13:04.904Z,101202.65
2018-10-02T19:15:38.180Z,101214.89
2018-10-02T19:18:06.218Z,101213.22
2018-10-02T19:20:39.609Z,101220.57
2018-10-02T19:23:07.640Z,101228.62
2018-10-02T19:25:40.928Z,101225.16
2018-10-02T19:28:09.107Z,101224.31
2018-10-02T19:30:42.380Z,101231.60
2018-10-02T19:33:10.408Z,101228.62
2018-10-02T19:35:38.436Z,101225.55
2018-10-02T19:38:11.878Z,101222.55
2018-10-02T19:40:39.928Z,101227.42
2018-10-02T19:43:07.948Z,101224.63
2018-10-02T19:45:41.225Z,101224.05
2018-10-02T19:48:09.260Z,101232.46
2018-10-02T19:50:37.297Z,101233.97
2018-10-02T19:53:06.317Z,101235.64
2018-10-02T19:55:34.323Z,101242.47
2018-10-02T19:58:03.245Z,101240.61
2018-10-02T20:00:31.273Z,101241.73
2018-10-02T20:02:59.448Z,101247.78
2018-10-02T20:05:27.492Z,101256.67
2018-10-02T20:07:55.516Z,101257.70
2018-10-02T20:10:24.429Z,101259.17
2018-10-02T20:12:52.452Z,101265.81
2018-10-02T20:15:20.741Z,101265.81
2018-10-02T20:17:48.768Z,101269.09
2018-10-02T20:20:16.816Z,101275.79
2018-10-02T20:22:44.916Z,101275.70
2018-10-02T20:25:12.948Z,101275.80
2018-10-02T20:27:41.112Z,101274.30
2018-10-02T20:30:09.147Z,101271.95
2018-10-02T20:32:37.178Z,101266.52
2018-10-02T20:35:05.201Z,101269.79
2018-10-02T20:37:33.226Z,101264.08
2018-10-02T20:40:01.236Z,101264.27
2018-10-02T20:42:29.259Z,101259.20
2018-10-02T20:44:57.290Z,101267.99
2018-10-02T20:47:25.311Z,101270.22
2018-10-02T20:49:53.872Z,101272.53
2018-10-02T20:52:21.904Z,101270.41
2018-10-02T20:54:50.520Z,101274.59
2018-10-02T20:57:18.559Z,101271.67
2018-10-02T20:59:46.604Z,101274.00
2018-10-02T21:02:14.777Z,101273.64
2018-10-02T21:04:43.801Z,101268.31
2018-10-02T21:07:11.828Z,101277.25
2018-10-02T21:09:40.016Z,101269.41
2018-10-02T21:12:08.040Z,101276.86
2018-10-02T21:14:36.044Z,101272.58
2018-10-02T21:17:07.132Z,101268.27
2018-10-02T21:19:35.184Z,101263.59
2018-10-02T21:22:03.223Z,101268.61
2018-10-02T21:24:31.268Z,101265.25
2018-10-02T21:26:59.284Z,101273.18
2018-10-02T21:29:27.822Z,101273.18
2018-10-02T21:31:55.896Z,101270.27
2018-10-02T21:34:23.912Z,101273.89
2018-10-02T21:36:52.078Z,101283.03
2018-10-02T21:39:20.099Z,101288.80
2018-10-02T21:41:48.116Z,101288.80
2018-10-02T21:44:16.149Z,101288.59
2018-10-02T21:46:44.160Z,101283.17
2018-10-02T21:49:12.194Z,101292.80
2018-10-02T21:51:40.197Z,101288.45
2018-10-02T21:54:08.223Z,101288.09
2018-10-02T21:56:36.275Z,101286.84
2018-10-02T21:59:05.620Z,101297.38
2018-10-02T22:01:33.683Z,101299.14
2018-10-02T22:04:01.713Z,101298.02
2018-10-02T22:06:29.740Z,101302.88
2018-10-02T22:08:57.764Z,101301.27
2018-10-02T22:11:25.784Z,101299.57
2018-10-02T22:13:53.791Z,101300.06
2018-10-02T22:16:21.808Z,101303.67
2018-10-02T22:18:49.845Z,101300.21
2018-10-02T22:21:17.859Z,101297.14
2018-10-02T22:23:45.893Z,101298.55
2018-10-02T22:26:13.916Z,101295.23
2018-10-02T22:28:41.947Z,101302.25
2018-10-02T22:31:09.964Z,101295.33
2018-10-02T22:33:38.053Z,101299.24
2018-10-02T22:36:06.015Z,101302.80
2018-10-02T22:38:34.048Z,101298.13
2018-10-02T22:41:02.060Z,101304.65
2018-10-02T22:43:30.088Z,101302.64
2018-10-02T22:45:58.095Z,101297.91
2018-10-02T22:48:26.116Z,101300.58
2018-10-02T22:50:54.144Z,101304.98
2018-10-02T22:53:22.164Z,101302.43
2018-10-02T22:55:50.196Z,101301.52
2018-10-02T22:58:18.216Z,101303.73
2018-10-02T23:00:47.381Z,101308.89
2018-10-02T23:03:15.627Z,101312.72
2018-10-02T23:05:43.691Z,101304.98
2018-10-02T23:08:11.702Z,101312.05
2018-10-02T23:10:39.716Z,101307.92
2018-10-02T23:13:07.787Z,101313.81
2018-10-02T23:15:35.810Z,101314.81
2018-10-02T23:18:03.992Z,101307.83
2018-10-02T23:20:32.016Z,101314.66
2018-10-02T23:23:00.045Z,101320.24
2018-10-02T23:25:28.057Z,101311.11
2018-10-02T23:27:56.072Z,101300.12
2018-10-02T23:30:24.116Z,101299.13
2018-10-02T23:32:52.133Z,101296.06
2018-10-02T23:35:20.156Z,101298.94
2018-10-02T23:37:48.173Z,101304.55
2018-10-02T23:40:16.355Z,101301.00
2018-10-02T23:42:44.363Z,101291.87
2018-10-02T23:45:12.405Z,101300.45
2018-10-02T23:47:40.435Z,101307.38
2018-10-02T23:50:08.469Z,101318.88
2018-10-02T23:52:43.179Z,101320.55
2018-10-02T23:55:11.197Z,101322.52
2018-10-02T23:57:39.223Z,101325.07
